sensor_id;sensor_type;location;lat;lon;timestamp;pressure;altitude;pressure_sealevel;temperature;humidity
21838;BME280;11081;45.946;6.140;2023-04-07T00:00:38;95195.84;;;9.83;51.22
21838;BME280;11081;45.946;6.140;2023-04-07T00:03:06;95191.88;;;9.73;51.50
21838;BME280;11081;45.946;6.140;2023-04-07T00:05:34;95199.56;;;9.68;51.62
21838;BME280;11081;45.946;6.140;2023-04-07T00:08:02;95192.75;;;9.67;50.83
21838;BME280;11081;45.946;6.140;2023-04-07T00:10:31;95193.19;;;9.64;51.03
21838;BME280;11081;45.946;6.140;2023-04-07T00:12:59;95194.44;;;9.55;51.97
21838;BME280;11081;45.946;6.140;2023-04-07T00:15:27;95186.31;;;9.45;52.66
21838;BME280;11081;45.946;6.140;2023-04-07T00:17:56;95185.75;;;9.36;52.38
21838;BME280;11081;45.946;6.140;2023-04-07T00:20:24;95184.66;;;9.26;52.76
21838;BME280;11081;45.946;6.140;2023-04-07T00:22:52;95175.09;;;9.20;52.63
21838;BME280;11081;45.946;6.140;2023-04-07T00:25:20;95167.09;;;9.14;52.37
21838;BME280;11081;45.946;6.140;2023-04-07T00:27:48;95165.13;;;9.10;53.07
21838;BME280;11081;45.946;6.140;2023-04-07T00:30:16;95159.97;;;9.03;52.52
21838;BME280;11081;45.946;6.140;2023-04-07T00:32:44;95156.78;;;9.01;52.87
21838;BME280;11081;45.946;6.140;2023-04-07T00:35:13;95155.19;;;9.00;53.61
21838;BME280;11081;45.946;6.140;2023-04-07T00:37:41;95144.00;;;9.00;52.99
21838;BME280;11081;45.946;6.140;2023-04-07T00:40:10;95146.59;;;9.00;53.56
21838;BME280;11081;45.946;6.140;2023-04-07T00:42:39;95142.00;;;8.95;53.42
21838;BME280;11081;45.946;6.140;2023-04-07T00:45:08;95144.44;;;8.90;53.61
21838;BME280;11081;45.946;6.140;2023-04-07T00:47:37;95140.25;;;8.89;54.36
21838;BME280;11081;45.946;6.140;2023-04-07T00:50:06;95137.25;;;8.85;54.37
21838;BME280;11081;45.946;6.140;2023-04-07T00:52:35;95133.53;;;8.75;54.64
21838;BME280;11081;45.946;6.140;2023-04-07T00:55:04;95134.41;;;8.62;54.94
21838;BME280;11081;45.946;6.140;2023-04-07T00:57:32;95126.22;;;8.52;54.98
21838;BME280;11081;45.946;6.140;2023-04-07T01:00:00;95133.06;;;8.46;55.16
21838;BME280;11081;45.946;6.140;2023-04-07T01:02:32;95131.06;;;8.48;54.83
21838;BME280;11081;45.946;6.140;2023-04-07T01:05:11;95128.28;;;8.43;55.29
21838;BME280;11081;45.946;6.140;2023-04-07T01:07:50;95129.88;;;8.44;55.43
21838;BME280;11081;45.946;6.140;2023-04-07T01:10:26;95129.88;;;8.44;55.33
21838;BME280;11081;45.946;6.140;2023-04-07T01:13:05;95125.94;;;8.35;55.40
21838;BME280;11081;45.946;6.140;2023-04-07T01:15:38;95121.50;;;8.42;55.37
21838;BME280;11081;45.946;6.140;2023-04-07T01:18:12;95123.88;;;8.44;55.93
21838;BME280;11081;45.946;6.140;2023-04-07T01:20:42;95122.66;;;8.46;55.59
21838;BME280;11081;45.946;6.140;2023-04-07T01:23:16;95125.69;;;8.43;55.87
21838;BME280;11081;45.946;6.140;2023-04-07T01:26:03;95122.66;;;8.46;56.15
21838;BME280;11081;45.946;6.140;2023-04-07T01:28:51;95107.50;;;8.30;56.75
21838;BME280;11081;45.946;6.140;2023-04-07T01:31:25;95101.97;;;8.20;56.45
21838;BME280;11081;45.946;6.140;2023-04-07T01:33:54;95101.97;;;8.20;56.17
21838;BME280;11081;45.946;6.140;2023-04-07T01:36:23;95097.19;;;8.17;55.94
21838;BME280;11081;45.946;6.140;2023-04-07T01:38:54;95097.94;;;8.24;55.68
21838;BME280;11081;45.946;6.140;2023-04-07T01:41:24;95100.72;;;8.29;55.26
21838;BME280;11081;45.946;6.140;2023-04-07T01:43:53;95093.16;;;8.34;54.98
21838;BME280;11081;45.946;6.140;2023-04-07T01:46:24;95099.94;;;8.35;55.00
21838;BME280;11081;45.946;6.140;2023-04-07T01:48:53;95095.94;;;8.26;55.50
21838;BME280;11081;45.946;6.140;2023-04-07T01:51:22;95093.91;;;8.28;55.68
21838;BME280;11081;45.946;6.140;2023-04-07T01:53:53;95101.91;;;8.33;55.59
21838;BME280;11081;45.946;6.140;2023-04-07T01:56:22;95098.94;;;8.36;55.48
21838;BME280;11081;45.946;6.140;2023-04-07T01:58:52;95099.09;;;8.41;55.67
21838;BME280;11081;45.946;6.140;2023-04-07T02:01:23;95098.72;;;8.38;56.11
21838;BME280;11081;45.946;6.140;2023-04-07T02:03:53;95093.53;;;8.38;55.84
21838;BME280;11081;45.946;6.140;2023-04-07T02:06:26;95093.72;;;8.36;55.97
21838;BME280;11081;45.946;6.140;2023-04-07T02:09:00;95101.53;;;8.36;56.24
21838;BME280;11081;45.946;6.140;2023-04-07T02:11:31;95089.53;;;8.35;57.00
21838;BME280;11081;45.946;6.140;2023-04-07T02:14:04;95091.13;;;8.30;57.48
21838;BME280;11081;45.946;6.140;2023-04-07T02:16:48;95095.94;;;8.26;57.49
21838;BME280;11081;45.946;6.140;2023-04-07T02:19:18;95094.94;;;8.27;57.98
21838;BME280;11081;45.946;6.140;2023-04-07T02:21:47;95088.72;;;8.28;57.77
21838;BME280;11081;45.946;6.140;2023-04-07T02:24:19;95083.09;;;8.31;57.87
21838;BME280;11081;45.946;6.140;2023-04-07T02:26:47;95085.94;;;8.36;58.02
21838;BME280;11081;45.946;6.140;2023-04-07T02:29:16;95083.50;;;8.41;57.81
21838;BME280;11081;45.946;6.140;2023-04-07T02:31:44;95066.25;;;8.47;57.89
21838;BME280;11081;45.946;6.140;2023-04-07T02:34:13;95063.44;;;8.48;58.14
21838;BME280;11081;45.946;6.140;2023-04-07T02:36:41;95058.66;;;8.45;57.97
21838;BME280;11081;45.946;6.140;2023-04-07T02:39:09;95057.50;;;8.41;57.94
21838;BME280;11081;45.946;6.140;2023-04-07T02:41:38;95061.94;;;8.27;58.15
21838;BME280;11081;45.946;6.140;2023-04-07T02:44:06;95058.19;;;8.17;57.47
21838;BME280;11081;45.946;6.140;2023-04-07T02:46:34;95050.50;;;7.90;57.96
21838;BME280;11081;45.946;6.140;2023-04-07T02:49:03;95046.09;;;7.98;58.28
21838;BME280;11081;45.946;6.140;2023-04-07T02:51:32;95040.00;;;8.17;58.44
21838;BME280;11081;45.946;6.140;2023-04-07T02:54:00;95043.94;;;8.26;57.81
21838;BME280;11081;45.946;6.140;2023-04-07T02:56:28;95036.53;;;8.36;57.51
21838;BME280;11081;45.946;6.140;2023-04-07T02:58:56;95029.47;;;8.43;57.56
21838;BME280;11081;45.946;6.140;2023-04-07T03:01:24;95028.72;;;8.36;57.65
21838;BME280;11081;45.946;6.140;2023-04-07T03:03:53;95023.53;;;8.36;58.03
21838;BME280;11081;45.946;6.140;2023-04-07T03:06:24;95023.53;;;8.36;57.79
21838;BME280;11081;45.946;6.140;2023-04-07T03:09:03;95011.91;;;8.32;57.68
21838;BME280;11081;45.946;6.140;2023-04-07T03:11:32;95007.16;;;8.22;58.10
21838;BME280;11081;45.946;6.140;2023-04-07T03:14:00;94998.84;;;8.14;58.21
21838;BME280;11081;45.946;6.140;2023-04-07T03:16:30;94995.63;;;8.12;58.24
21838;BME280;11081;45.946;6.140;2023-04-07T03:19:07;94998.31;;;7.99;58.18
21838;BME280;11081;45.946;6.140;2023-04-07T03:21:40;95002.75;;;7.91;58.02
21838;BME280;11081;45.946;6.140;2023-04-07T03:24:10;95000.53;;;7.95;58.09
21838;BME280;11081;45.946;6.140;2023-04-07T03:26:38;94998.47;;;8.04;57.43
21838;BME280;11081;45.946;6.140;2023-04-07T03:29:15;94990.50;;;7.99;56.79
21838;BME280;11081;45.946;6.140;2023-04-07T03:31:43;94976.44;;;8.13;56.34
21838;BME280;11081;45.946;6.140;2023-04-07T03:34:14;94979.84;;;8.13;56.53
21838;BME280;11081;45.946;6.140;2023-04-07T03:36:42;94975.84;;;8.11;56.29
21838;BME280;11081;45.946;6.140;2023-04-07T03:39:11;94970.81;;;8.16;55.90
21838;BME280;11081;45.946;6.140;2023-04-07T03:41:39;94958.25;;;8.13;56.39
21838;BME280;11081;45.946;6.140;2023-04-07T03:44:08;94958.03;;;8.14;56.81
21838;BME280;11081;45.946;6.140;2023-04-07T03:46:37;94944.84;;;8.16;56.97
21838;BME280;11081;45.946;6.140;2023-04-07T03:49:06;94949.25;;;8.09;56.73
21838;BME280;11081;45.946;6.140;2023-04-07T03:51:34;94953.66;;;8.15;56.34
21838;BME280;11081;45.946;6.140;2023-04-07T03:54:06;94942.47;;;8.08;56.27
21838;BME280;11081;45.946;6.140;2023-04-07T03:56:40;94937.19;;;7.89;56.77
21838;BME280;11081;45.946;6.140;2023-04-07T03:59:08;94933.09;;;8.07;57.03
21838;BME280;11081;45.946;6.140;2023-04-07T04:01:44;94936.69;;;8.06;56.79
21838;BME280;11081;45.946;6.140;2023-04-07T04:04:14;94954.28;;;7.72;57.70
21838;BME280;11081;45.946;6.140;2023-04-07T04:06:43;94939.56;;;7.59;57.19
21838;BME280;11081;45.946;6.140;2023-04-07T04:09:21;94935.53;;;7.63;56.61
21838;BME280;11081;45.946;6.140;2023-04-07T04:11:50;94944.59;;;7.92;55.84
21838;BME280;11081;45.946;6.140;2023-04-07T04:14:18;94958.84;;;8.15;54.11
21838;BME280;11081;45.946;6.140;2023-04-07T04:16:52;94974.03;;;8.11;55.03
21838;BME280;11081;45.946;6.140;2023-04-07T04:19:28;94993.16;;;7.27;57.22
21838;BME280;11081;45.946;6.140;2023-04-07T04:21:59;95004.41;;;7.08;59.08
21838;BME280;11081;45.946;6.140;2023-04-07T04:24:32;95001.97;;;7.26;57.77
21838;BME280;11081;45.946;6.140;2023-04-07T04:27:03;94998.31;;;7.47;56.43
21838;BME280;11081;45.946;6.140;2023-04-07T04:29:32;95004.25;;;7.61;56.59
21838;BME280;11081;45.946;6.140;2023-04-07T04:32:02;95009.88;;;7.58;56.66
21838;BME280;11081;45.946;6.140;2023-04-07T04:34:30;95020.47;;;7.56;59.14
21838;BME280;11081;45.946;6.140;2023-04-07T04:36:58;95019.84;;;7.61;61.14
21838;BME280;11081;45.946;6.140;2023-04-07T04:39:26;95013.81;;;7.67;61.39
21838;BME280;11081;45.946;6.140;2023-04-07T04:41:56;95019.03;;;7.67;62.76
21838;BME280;11081;45.946;6.140;2023-04-07T04:44:31;95020.19;;;7.78;62.31
21838;BME280;11081;45.946;6.140;2023-04-07T04:47:02;95019.09;;;7.99;62.85
21838;BME280;11081;45.946;6.140;2023-04-07T04:49:30;95009.56;;;8.24;63.38
21838;BME280;11081;45.946;6.140;2023-04-07T04:52:02;95009.97;;;8.21;63.85
21838;BME280;11081;45.946;6.140;2023-04-07T04:54:36;94998.47;;;8.04;64.12
21838;BME280;11081;45.946;6.140;2023-04-07T04:57:04;95010.53;;;7.91;64.77
21838;BME280;11081;45.946;6.140;2023-04-07T04:59:38;95011.34;;;7.85;66.03
21838;BME280;11081;45.946;6.140;2023-04-07T05:02:08;95009.00;;;7.77;66.43
21838;BME280;11081;45.946;6.140;2023-04-07T05:04:36;95007.16;;;7.84;67.15
21838;BME280;11081;45.946;6.140;2023-04-07T05:07:26;95000.97;;;7.85;67.20
21838;BME280;11081;45.946;6.140;2023-04-07T05:09:55;95012.13;;;7.92;66.71
21838;BME280;11081;45.946;6.140;2023-04-07T05:12:23;95014.91;;;7.98;66.56
21838;BME280;11081;45.946;6.140;2023-04-07T05:14:57;95004.69;;;8.03;66.18
21838;BME280;11081;45.946;6.140;2023-04-07T05:17:26;95002.88;;;8.03;65.88
21838;BME280;11081;45.946;6.140;2023-04-07T05:19:55;94999.31;;;7.98;66.01
21838;BME280;11081;45.946;6.140;2023-04-07T05:22:33;94995.72;;;7.99;66.27
21838;BME280;11081;45.946;6.140;2023-04-07T05:25:04;95001.31;;;7.95;66.49
21838;BME280;11081;45.946;6.140;2023-04-07T05:27:32;94994.97;;;7.91;67.38
21838;BME280;11081;45.946;6.140;2023-04-07T05:30:09;94996.72;;;7.98;67.36
21838;BME280;11081;45.946;6.140;2023-04-07T05:32:38;95001.50;;;8.01;66.80
21838;BME280;11081;45.946;6.140;2023-04-07T05:35:15;95003.25;;;8.07;66.65
21838;BME280;11081;45.946;6.140;2023-04-07T05:37:50;94994.44;;;8.08;66.43
21838;BME280;11081;45.946;6.140;2023-04-07T05:40:18;94987.44;;;8.15;66.88
21838;BME280;11081;45.946;6.140;2023-04-07T05:42:46;94980.38;;;8.22;65.95
21838;BME280;11081;45.946;6.140;2023-04-07T05:45:16;94986.31;;;8.29;66.17
21838;BME280;11081;45.946;6.140;2023-04-07T05:47:46;94987.53;;;8.33;66.02
21838;BME280;11081;45.946;6.140;2023-04-07T05:50:22;94987.13;;;8.36;66.16
21838;BME280;11081;45.946;6.140;2023-04-07T05:52:51;94972.69;;;8.40;65.62
21838;BME280;11081;45.946;6.140;2023-04-07T05:55:24;94971.09;;;8.39;65.96
21838;BME280;11081;45.946;6.140;2023-04-07T05:57:53;94978.31;;;8.37;65.91
21838;BME280;11081;45.946;6.140;2023-04-07T06:00:26;94983.16;;;8.34;66.61
21838;BME280;11081;45.946;6.140;2023-04-07T06:03:03;94985.91;;;8.32;66.26
21838;BME280;11081;45.946;6.140;2023-04-07T06:05:41;94995.50;;;8.38;66.30
21838;BME280;11081;45.946;6.140;2023-04-07T06:08:13;94997.09;;;8.39;65.24
21838;BME280;11081;45.946;6.140;2023-04-07T06:10:41;95005.31;;;8.36;66.71
21838;BME280;11081;45.946;6.140;2023-04-07T06:13:10;95005.47;;;8.41;66.52
21838;BME280;11081;45.946;6.140;2023-04-07T06:15:40;95017.47;;;8.42;64.93
21838;BME280;11081;45.946;6.140;2023-04-07T06:18:08;95033.94;;;8.36;65.18
21838;BME280;11081;45.946;6.140;2023-04-07T06:20:38;95043.94;;;8.26;65.75
21838;BME280;11081;45.946;6.140;2023-04-07T06:23:06;95049.69;;;7.90;66.29
21838;BME280;11081;45.946;6.140;2023-04-07T06:25:34;95072.41;;;8.08;65.88
21838;BME280;11081;45.946;6.140;2023-04-07T06:28:02;95078.91;;;7.85;66.72
21838;BME280;11081;45.946;6.140;2023-04-07T06:30:30;95108.06;;;7.87;67.45
21838;BME280;11081;45.946;6.140;2023-04-07T06:32:59;95107.91;;;7.69;68.15
21838;BME280;11081;45.946;6.140;2023-04-07T06:35:27;95104.53;;;7.75;67.72
21838;BME280;11081;45.946;6.140;2023-04-07T06:37:55;95115.69;;;7.82;68.22
21838;BME280;11081;45.946;6.140;2023-04-07T06:40:23;95108.47;;;7.84;68.31
21838;BME280;11081;45.946;6.140;2023-04-07T06:42:51;95105.66;;;7.99;69.40
21838;BME280;11081;45.946;6.140;2023-04-07T06:45:35;95093.22;;;8.08;70.53
21838;BME280;11081;45.946;6.140;2023-04-07T06:48:05;95089.97;;;8.19;70.86
21838;BME280;11081;45.946;6.140;2023-04-07T06:50:33;95093.59;;;8.18;72.26
21838;BME280;11081;45.946;6.140;2023-04-07T06:53:01;95083.59;;;8.15;70.62
21838;BME280;11081;45.946;6.140;2023-04-07T06:55:29;95096.81;;;8.13;71.60
21838;BME280;11081;45.946;6.140;2023-04-07T06:57:57;95106.00;;;8.16;72.18
21838;BME280;11081;45.946;6.140;2023-04-07T07:00:25;95111.19;;;8.16;73.12
21838;BME280;11081;45.946;6.140;2023-04-07T07:02:55;95119.19;;;8.08;74.23
21838;BME280;11081;45.946;6.140;2023-04-07T07:05:25;95125.00;;;8.10;74.50
21838;BME280;11081;45.946;6.140;2023-04-07T07:07:53;95131.19;;;8.15;74.68
21838;BME280;11081;45.946;6.140;2023-04-07T07:10:21;95131.19;;;8.09;74.79
21838;BME280;11081;45.946;6.140;2023-04-07T07:12:49;95137.97;;;8.10;75.43
21838;BME280;11081;45.946;6.140;2023-04-07T07:15:17;95139.56;;;8.11;75.24
21838;BME280;11081;45.946;6.140;2023-04-07T07:17:45;95134.00;;;8.14;75.51
21838;BME280;11081;45.946;6.140;2023-04-07T07:20:13;95139.19;;;8.14;75.80
21838;BME280;11081;45.946;6.140;2023-04-07T07:22:43;95143.19;;;8.16;75.94
21838;BME280;11081;45.946;6.140;2023-04-07T07:25:11;95143.59;;;8.07;77.33
21838;BME280;11081;45.946;6.140;2023-04-07T07:27:39;95149.59;;;8.07;77.18
21838;BME280;11081;45.946;6.140;2023-04-07T07:30:07;95140.38;;;8.18;76.89
21838;BME280;11081;45.946;6.140;2023-04-07T07:32:35;95138.56;;;8.18;77.26
21838;BME280;11081;45.946;6.140;2023-04-07T07:35:04;95140.19;;;8.13;77.53
21838;BME280;11081;45.946;6.140;2023-04-07T07:37:32;95135.97;;;8.18;77.14
21838;BME280;11081;45.946;6.140;2023-04-07T07:40:01;95136.78;;;8.19;76.76
21838;BME280;11081;45.946;6.140;2023-04-07T07:42:30;95146.38;;;8.12;77.04
21838;BME280;11081;45.946;6.140;2023-04-07T07:44:58;95143.19;;;8.10;77.54
21838;BME280;11081;45.946;6.140;2023-04-07T07:47:26;95142.41;;;8.03;78.08
21838;BME280;11081;45.946;6.140;2023-04-07T07:49:54;95142.81;;;8.00;78.30
21838;BME280;11081;45.946;6.140;2023-04-07T07:52:22;95147.59;;;8.03;78.17
21838;BME280;11081;45.946;6.140;2023-04-07T07:54:51;95145.19;;;8.08;78.77
21838;BME280;11081;45.946;6.140;2023-04-07T07:57:20;95147.59;;;8.03;79.35
21838;BME280;11081;45.946;6.140;2023-04-07T07:59:48;95150.00;;;8.04;78.71
21838;BME280;11081;45.946;6.140;2023-04-07T08:02:16;95156.75;;;8.12;78.22
21838;BME280;11081;45.946;6.140;2023-04-07T08:04:44;95149.78;;;8.12;77.69
21838;BME280;11081;45.946;6.140;2023-04-07T08:07:12;95148.00;;;8.13;78.18
21838;BME280;11081;45.946;6.140;2023-04-07T08:09:40;95145.19;;;8.08;78.00
21838;BME280;11081;45.946;6.140;2023-04-07T08:12:08;95153.56;;;8.10;78.27
21838;BME280;11081;45.946;6.140;2023-04-07T08:14:37;95149.59;;;8.14;78.50
21838;BME280;11081;45.946;6.140;2023-04-07T08:17:05;95149.13;;;8.23;78.29
21838;BME280;11081;45.946;6.140;2023-04-07T08:19:33;95147.50;;;8.29;78.38
21838;BME280;11081;45.946;6.140;2023-04-07T08:22:01;95149.53;;;8.27;79.01
21838;BME280;11081;45.946;6.140;2023-04-07T08:24:29;95163.94;;;8.23;79.03
21838;BME280;11081;45.946;6.140;2023-04-07T08:26:57;95164.78;;;8.17;78.41
21838;BME280;11081;45.946;6.140;2023-04-07T08:29:25;95164.81;;;7.90;79.68
21838;BME280;11081;45.946;6.140;2023-04-07T08:31:54;95160.78;;;8.08;79.10
21838;BME280;11081;45.946;6.140;2023-04-07T08:34:22;95159.16;;;8.20;79.14
21838;BME280;11081;45.946;6.140;2023-04-07T08:36:50;95163.16;;;8.22;79.31
21838;BME280;11081;45.946;6.140;2023-04-07T08:39:18;95164.78;;;8.17;79.73
21838;BME280;11081;45.946;6.140;2023-04-07T08:41:46;95162.75;;;8.19;78.69
21838;BME280;11081;45.946;6.140;2023-04-07T08:44:15;95171.75;;;8.23;79.22
21838;BME280;11081;45.946;6.140;2023-04-07T08:46:45;95163.53;;;8.39;79.58
21838;BME280;11081;45.946;6.140;2023-04-07T08:49:16;95165.47;;;8.50;79.14
21838;BME280;11081;45.946;6.140;2023-04-07T08:51:45;95167.59;;;8.67;77.93
21838;BME280;11081;45.946;6.140;2023-04-07T08:54:15;95168.50;;;8.85;76.29
21838;BME280;11081;45.946;6.140;2023-04-07T08:56:44;95171.63;;;8.94;76.16
21838;BME280;11081;45.946;6.140;2023-04-07T08:59:14;95174.00;;;9.02;77.08
21838;BME280;11081;45.946;6.140;2023-04-07T09:01:44;95180.81;;;9.03;76.56
21838;BME280;11081;45.946;6.140;2023-04-07T09:04:13;95175.97;;;9.07;77.84
21838;BME280;11081;45.946;6.140;2023-04-07T09:06:42;95184.00;;;9.05;76.37
21838;BME280;11081;45.946;6.140;2023-04-07T09:09:10;95179.22;;;9.02;76.36
21838;BME280;11081;45.946;6.140;2023-04-07T09:11:40;95180.44;;;8.93;77.58
21838;BME280;11081;45.946;6.140;2023-04-07T09:14:08;95172.84;;;8.92;77.29
21838;BME280;11081;45.946;6.140;2023-04-07T09:16:37;95172.63;;;8.93;77.86
21838;BME280;11081;45.946;6.140;2023-04-07T09:19:05;95176.03;;;9.00;77.08
21838;BME280;11081;45.946;6.140;2023-04-07T09:21:50;95174.44;;;8.99;77.44
21838;BME280;11081;45.946;6.140;2023-04-07T09:24:23;95171.13;;;9.10;76.97
21838;BME280;11081;45.946;6.140;2023-04-07T09:27:10;95173.16;;;9.08;79.23
21838;BME280;11081;45.946;6.140;2023-04-07T09:29:42;95171.56;;;9.07;78.24
21838;BME280;11081;45.946;6.140;2023-04-07T09:32:11;95171.13;;;9.10;78.81
21838;BME280;11081;45.946;6.140;2023-04-07T09:34:40;95166.72;;;9.11;78.83
21838;BME280;11081;45.946;6.140;2023-04-07T09:37:20;95169.53;;;9.09;78.94
21838;BME280;11081;45.946;6.140;2023-04-07T09:39:51;95168.78;;;9.02;78.95
21838;BME280;11081;45.946;6.140;2023-04-07T09:42:19;95164.84;;;8.93;77.64
21838;BME280;11081;45.946;6.140;2023-04-07T09:44:48;95166.47;;;8.88;77.16
21838;BME280;11081;45.946;6.140;2023-04-07T09:47:16;95169.22;;;8.99;77.26
21838;BME280;11081;45.946;6.140;2023-04-07T09:49:48;95168.28;;;9.19;76.77
21838;BME280;11081;45.946;6.140;2023-04-07T09:52:25;95164.56;;;9.33;76.77
21838;BME280;11081;45.946;6.140;2023-04-07T09:55:09;95158.69;;;9.44;77.36
21838;BME280;11081;45.946;6.140;2023-04-07T09:57:38;95155.22;;;9.50;76.78
21838;BME280;11081;45.946;6.140;2023-04-07T10:00:08;95154.34;;;9.56;76.45
21838;BME280;11081;45.946;6.140;2023-04-07T10:02:41;95149.47;;;9.66;76.16
21838;BME280;11081;45.946;6.140;2023-04-07T10:05:10;95152.53;;;9.82;75.64
21838;BME280;11081;45.946;6.140;2023-04-07T10:07:39;95148.75;;;9.96;75.45
21838;BME280;11081;45.946;6.140;2023-04-07T10:10:09;95145.59;;;9.94;75.20
21838;BME280;11081;45.946;6.140;2023-04-07T10:12:37;95151.59;;;9.94;75.10
21838;BME280;11081;45.946;6.140;2023-04-07T10:15:07;95145.88;;;10.04;74.95
21838;BME280;11081;45.946;6.140;2023-04-07T10:17:39;95135.03;;;10.07;73.82
21838;BME280;11081;45.946;6.140;2023-04-07T10:20:09;95130.66;;;10.19;72.94
21838;BME280;11081;45.946;6.140;2023-04-07T10:22:38;95126.47;;;10.18;73.92
21838;BME280;11081;45.946;6.140;2023-04-07T10:25:12;95129.53;;;10.33;74.95
21838;BME280;11081;45.946;6.140;2023-04-07T10:27:44;95129.38;;;10.47;73.69
21838;BME280;11081;45.946;6.140;2023-04-07T10:30:22;95127.34;;;10.49;73.82
21838;BME280;11081;45.946;6.140;2023-04-07T10:32:52;95127.19;;;10.62;73.17
21838;BME280;11081;45.946;6.140;2023-04-07T10:35:21;95122.81;;;10.56;73.00
21838;BME280;11081;45.946;6.140;2023-04-07T10:38:08;95113.63;;;10.83;73.59
21838;BME280;11081;45.946;6.140;2023-04-07T10:40:39;95113.88;;;10.93;72.34
21838;BME280;11081;45.946;6.140;2023-04-07T10:43:08;95110.41;;;11.11;70.63
21838;BME280;11081;45.946;6.140;2023-04-07T10:45:53;95096.47;;;11.29;71.86
21838;BME280;11081;45.946;6.140;2023-04-07T10:48:22;95101.44;;;11.42;71.13
21838;BME280;11081;45.946;6.140;2023-04-07T10:51:12;95090.66;;;11.39;71.02
21838;BME280;11081;45.946;6.140;2023-04-07T10:57:10;95093.28;;;11.27;68.49
21838;BME280;11081;45.946;6.140;2023-04-07T10:59:41;95089.66;;;11.28;69.34
21838;BME280;11081;45.946;6.140;2023-04-07T11:02:32;95085.06;;;11.12;66.92
21838;BME280;11081;45.946;6.140;2023-04-07T11:05:01;95085.16;;;10.93;67.77
21838;BME280;11081;45.946;6.140;2023-04-07T11:07:52;95089.75;;;10.68;65.31
21838;BME280;11081;45.946;6.140;2023-04-07T11:10:23;95098.34;;;10.20;67.66
21838;BME280;11081;45.946;6.140;2023-04-07T11:13:04;95113.59;;;9.43;70.67
21838;BME280;11081;45.946;6.140;2023-04-07T11:15:33;95116.25;;;8.55;72.17
21838;BME280;11081;45.946;6.140;2023-04-07T11:18:07;95103.72;;;7.68;75.74
21838;BME280;11081;45.946;6.140;2023-04-07T11:20:50;95108.13;;;7.68;77.09
21838;BME280;11081;45.946;6.140;2023-04-07T11:23:20;95115.94;;;7.54;77.95
21838;BME280;11081;45.946;6.140;2023-04-07T11:25:51;95122.13;;;7.73;78.30
21838;BME280;11081;45.946;6.140;2023-04-07T11:28:21;95123.28;;;7.77;79.38
21838;BME280;11081;45.946;6.140;2023-04-07T11:30:50;95116.91;;;7.73;80.04
21838;BME280;11081;45.946;6.140;2023-04-07T11:33:21;95128.09;;;7.80;79.22
21838;BME280;11081;45.946;6.140;2023-04-07T11:35:54;95130.28;;;7.70;78.57
21838;BME280;11081;45.946;6.140;2023-04-07T11:38:24;95136.53;;;7.56;76.38
21838;BME280;11081;45.946;6.140;2023-04-07T11:40:53;95139.72;;;7.45;80.12
21838;BME280;11081;45.946;6.140;2023-04-07T11:43:24;95137.28;;;7.76;80.69
21838;BME280;11081;45.946;6.140;2023-04-07T11:46:06;95140.50;;;7.65;77.45
21838;BME280;11081;45.946;6.140;2023-04-07T11:48:35;95128.25;;;7.99;77.96
21838;BME280;11081;45.946;6.140;2023-04-07T11:51:04;95128.72;;;8.40;77.70
21838;BME280;11081;45.946;6.140;2023-04-07T11:53:34;95135.94;;;8.70;77.23
21838;BME280;11081;45.946;6.140;2023-04-07T11:56:05;95138.41;;;8.96;78.02
21838;BME280;11081;45.946;6.140;2023-04-07T11:58:36;95137.44;;;9.15;78.72
21838;BME280;11081;45.946;6.140;2023-04-07T12:01:05;95147.03;;;9.22;77.29
21838;BME280;11081;45.946;6.140;2023-04-07T12:03:36;95144.88;;;9.37;78.29
21838;BME280;11081;45.946;6.140;2023-04-07T12:06:04;95153.94;;;9.59;78.00
21838;BME280;11081;45.946;6.140;2023-04-07T12:08:37;95157.31;;;9.85;77.60
21838;BME280;11081;45.946;6.140;2023-04-07T12:11:06;95163.41;;;9.97;77.04
21838;BME280;11081;45.946;6.140;2023-04-07T12:13:36;95159.50;;;10.06;78.27
21838;BME280;11081;45.946;6.140;2023-04-07T12:16:04;95155.44;;;10.10;77.53
21838;BME280;11081;45.946;6.140;2023-04-07T12:18:32;95156.59;;;10.14;78.08
21838;BME280;11081;45.946;6.140;2023-04-07T12:21:00;95147.53;;;9.98;75.12
21838;BME280;11081;45.946;6.140;2023-04-07T12:23:28;95151.09;;;10.04;74.69
21838;BME280;11081;45.946;6.140;2023-04-07T12:25:56;95139.81;;;10.10;74.47
21838;BME280;11081;45.946;6.140;2023-04-07T12:28:24;95142.09;;;10.18;74.05
21838;BME280;11081;45.946;6.140;2023-04-07T12:30:54;95152.00;;;10.34;72.94
21838;BME280;11081;45.946;6.140;2023-04-07T12:33:22;95152.22;;;10.33;71.73
21838;BME280;11081;45.946;6.140;2023-04-07T12:35:50;95148.13;;;10.55;71.11
21838;BME280;11081;45.946;6.140;2023-04-07T12:38:18;95143.53;;;10.69;71.18
21838;BME280;11081;45.946;6.140;2023-04-07T12:40:46;95135.03;;;10.74;71.82
21838;BME280;11081;45.946;6.140;2023-04-07T12:43:14;95136.97;;;10.78;71.28
21838;BME280;11081;45.946;6.140;2023-04-07T12:45:42;95138.41;;;10.92;70.77
21838;BME280;11081;45.946;6.140;2023-04-07T12:48:11;95134.22;;;11.03;70.99
21838;BME280;11081;45.946;6.140;2023-04-07T12:50:39;95129.69;;;11.10;70.52
21838;BME280;11081;45.946;6.140;2023-04-07T12:53:07;95127.81;;;11.29;69.72
21838;BME280;11081;45.946;6.140;2023-04-07T12:55:35;95121.94;;;11.45;69.93
21838;BME280;11081;45.946;6.140;2023-04-07T12:58:03;95127.94;;;11.57;71.64
21838;BME280;11081;45.946;6.140;2023-04-07T13:00:31;95110.31;;;11.65;71.28
21838;BME280;11081;45.946;6.140;2023-04-07T13:02:59;95114.19;;;11.74;70.39
21838;BME280;11081;45.946;6.140;2023-04-07T13:05:29;95119.75;;;11.77;70.39
21838;BME280;11081;45.946;6.140;2023-04-07T13:07:56;95108.50;;;11.77;70.12
21838;BME280;11081;45.946;6.140;2023-04-07T13:10:25;95112.84;;;11.83;70.21
21838;BME280;11081;45.946;6.140;2023-04-07T13:12:53;95107.16;;;11.86;70.14
21838;BME280;11081;45.946;6.140;2023-04-07T13:15:21;95112.81;;;12.06;68.62
21838;BME280;11081;45.946;6.140;2023-04-07T13:17:49;95106.25;;;11.92;68.88
21838;BME280;11081;45.946;6.140;2023-04-07T13:20:17;95111.59;;;11.85;68.43
21838;BME280;11081;45.946;6.140;2023-04-07T13:22:48;95105.78;;;11.72;67.96
21838;BME280;11081;45.946;6.140;2023-04-07T13:25:32;95104.63;;;11.44;68.24
21838;BME280;11081;45.946;6.140;2023-04-07T13:28:00;95099.16;;;11.11;67.47
21838;BME280;11081;45.946;6.140;2023-04-07T13:30:29;95103.38;;;10.82;67.43